Time;durP1;ratioP1;P1;durP2;ratioP2;P2;SDS_P1;SDS_P2;PMS_P1;PMS_P2;Temp;Humidity;BMP_temperature;BMP_pressure;BME280_temperature;BME280_humidity;BME280_pressure;Samples;Min_cycle;Max_cycle;Signal;HPM_P1;HPM_P2
2021/04/27 00:05:00;;;;;;;15.50;9.13;;;5.50;99.90;;;;;;5032629;28;20687;-73
2021/04/27 00:07:28;;;;;;;23.03;9.57;;;5.50;99.90;;;;;;5024088;28;20205;-74
2021/04/27 00:09:54;;;;;;;20.57;9.43;;;5.50;99.90;;;;;;5011214;28;20717;-74
2021/04/27 00:12:21;;;;;;;20.17;9.53;;;5.40;99.90;;;;;;5014883;28;20319;-74
2021/04/27 00:14:47;;;;;;;21.30;10.13;;;5.40;99.90;;;;;;5024295;28;20327;-74
2021/04/27 00:17:14;;;;;;;24.37;11.07;;;5.40;99.90;;;;;;5012681;28;20224;-74
2021/04/27 00:19:40;;;;;;;18.83;10.17;;;5.50;99.90;;;;;;5025068;28;20283;-74
2021/04/27 00:22:06;;;;;;;20.43;10.20;;;5.40;99.90;;;;;;5030898;28;20733;-73
2021/04/27 00:24:34;;;;;;;22.73;9.97;;;5.40;99.90;;;;;;5024085;28;20229;-74
2021/04/27 00:27:01;;;;;;;18.13;9.90;;;5.40;99.90;;;;;;5024871;28;20606;-74
2021/04/27 00:29:29;;;;;;;20.67;10.83;;;5.30;99.90;;;;;;5029115;28;20295;-73
2021/04/27 00:31:55;;;;;;;24.13;11.00;;;5.20;99.90;;;;;;5030480;28;20704;-73
2021/04/27 00:34:23;;;;;;;23.00;10.70;;;5.10;99.90;;;;;;5029470;28;20292;-73
2021/04/27 00:36:49;;;;;;;21.50;9.97;;;5.20;99.90;;;;;;5024321;28;20291;-74
2021/04/27 00:39:16;;;;;;;19.60;10.63;;;5.20;99.90;;;;;;5010921;28;20229;-74
2021/04/27 00:41:43;;;;;;;21.43;10.23;;;5.10;99.90;;;;;;5010980;28;20280;-73
2021/04/27 00:44:10;;;;;;;18.03;9.53;;;5.00;99.90;;;;;;5010926;28;20292;-73
2021/04/27 00:46:36;;;;;;;17.33;10.50;;;5.00;99.90;;;;;;5012746;28;20611;-74
2021/04/27 00:49:03;;;;;;;20.37;10.53;;;5.10;99.90;;;;;;5017825;28;20201;-74
2021/04/27 00:51:30;;;;;;;23.47;10.93;;;5.00;99.90;;;;;;5020834;28;20861;-74
2021/04/27 00:53:56;;;;;;;17.90;10.60;;;5.00;99.90;;;;;;5021507;28;20283;-74
2021/04/27 00:56:23;;;;;;;23.47;11.17;;;5.00;99.90;;;;;;5032860;28;20299;-74
2021/04/27 00:58:50;;;;;;;22.73;11.30;;;5.00;99.90;;;;;;5034197;28;20242;-73
2021/04/27 01:01:17;;;;;;;19.40;10.60;;;5.00;99.90;;;;;;5033753;28;20232;-74
2021/04/27 01:03:43;;;;;;;16.80;11.03;;;4.90;99.90;;;;;;5033773;28;20291;-73
2021/04/27 01:06:10;;;;;;;22.20;11.57;;;4.80;99.90;;;;;;5033982;28;20296;-74
2021/04/27 01:08:45;;;;;;;18.80;11.53;;;4.80;99.90;;;;;;5031606;28;20243;-73
2021/04/27 01:11:18;;;;;;;19.87;10.97;;;4.80;99.90;;;;;;5018558;28;20216;-73
2021/04/27 01:13:55;;;;;;;21.80;11.60;;;4.70;99.90;;;;;;5024760;28;20303;-73
2021/04/27 01:16:22;;;;;;;19.30;10.70;;;4.70;99.90;;;;;;5018396;28;20291;-73
2021/04/27 01:18:52;;;;;;;21.97;10.60;;;4.70;99.90;;;;;;5024007;28;20204;-73
2021/04/27 01:21:21;;;;;;;18.50;11.20;;;4.70;99.90;;;;;;5034136;28;20228;-74
2021/04/27 01:24:01;;;;;;;21.87;11.57;;;4.70;99.90;;;;;;5032164;28;20680;-74
2021/04/27 01:26:38;;;;;;;16.77;10.73;;;4.70;99.90;;;;;;5013489;28;20756;-73
2021/04/27 01:29:06;;;;;;;19.57;11.00;;;4.70;99.90;;;;;;5031721;28;20222;-73
2021/04/27 01:31:34;;;;;;;21.13;11.43;;;4.70;99.90;;;;;;5001261;28;20311;-73
2021/04/27 01:34:01;;;;;;;22.03;11.80;;;4.80;99.90;;;;;;5013160;28;20683;-74
2021/04/27 01:36:28;;;;;;;20.53;11.33;;;4.70;99.90;;;;;;5013974;28;20244;-73
2021/04/27 01:38:55;;;;;;;20.73;12.03;;;4.70;99.90;;;;;;5021572;28;20254;-73
2021/04/27 01:41:21;;;;;;;19.03;11.70;;;4.80;99.90;;;;;;5033661;28;20306;-73
2021/04/27 01:43:49;;;;;;;22.33;12.20;;;4.70;99.90;;;;;;5013532;28;20292;-74
2021/04/27 01:46:16;;;;;;;20.40;11.97;;;4.60;99.90;;;;;;5013746;28;20216;-73
2021/04/27 01:48:44;;;;;;;20.40;11.60;;;4.60;99.90;;;;;;5013601;28;20233;-74
2021/04/27 01:51:11;;;;;;;23.50;11.90;;;4.50;99.90;;;;;;5013767;28;20227;-74
2021/04/27 01:53:39;;;;;;;17.43;11.37;;;4.50;99.90;;;;;;5024376;28;20204;-73
2021/04/27 01:56:06;;;;;;;24.10;12.73;;;4.50;99.90;;;;;;5012741;28;20232;-75
2021/04/27 01:58:32;;;;;;;20.87;13.67;;;4.50;99.90;;;;;;5032839;28;20735;-72
2021/04/27 02:01:00;;;;;;;21.90;13.10;;;4.60;99.90;;;;;;5022292;28;20263;-74
2021/04/27 02:03:28;;;;;;;20.23;12.13;;;4.60;99.90;;;;;;5013497;28;20260;-74
2021/04/27 02:05:54;;;;;;;20.60;12.53;;;4.50;99.90;;;;;;5013304;28;20316;-74
2021/04/27 02:08:20;;;;;;;25.10;12.73;;;4.50;99.90;;;;;;5013379;28;20633;-74
2021/04/27 02:10:47;;;;;;;21.30;12.07;;;4.40;99.90;;;;;;5013017;28;20308;-74
2021/04/27 02:13:17;;;;;;;20.43;12.17;;;4.30;99.90;;;;;;5017572;28;20223;-74
2021/04/27 02:15:45;;;;;;;22.90;12.53;;;4.20;99.90;;;;;;5012974;28;20235;-74
2021/04/27 02:18:19;;;;;;;22.43;12.30;;;4.20;99.90;;;;;;5013185;28;20923;-74
2021/04/27 02:20:46;;;;;;;22.30;13.33;;;4.20;99.90;;;;;;5012849;28;20300;-73
2021/04/27 02:23:14;;;;;;;22.13;12.73;;;4.30;99.90;;;;;;5012797;28;20733;-74
2021/04/27 02:25:42;;;;;;;23.87;13.90;;;4.30;99.90;;;;;;5012872;28;20687;-73
2021/04/27 02:28:09;;;;;;;24.23;13.17;;;4.30;99.90;;;;;;5029202;28;20689;-74
2021/04/27 02:30:37;;;;;;;19.23;13.40;;;4.30;99.90;;;;;;5031766;28;20586;-74
2021/04/27 02:33:03;;;;;;;23.83;13.87;;;4.30;99.90;;;;;;5032857;28;20290;-73
2021/04/27 02:35:31;;;;;;;23.33;13.93;;;4.30;99.90;;;;;;5014450;28;20299;-74
2021/04/27 02:37:58;;;;;;;23.37;13.17;;;4.30;99.90;;;;;;5020360;28;20200;-74
2021/04/27 02:40:27;;;;;;;22.13;13.27;;;4.20;99.90;;;;;;5028027;28;20305;-73
2021/04/27 02:42:55;;;;;;;20.07;12.83;;;4.20;99.90;;;;;;5027671;28;20302;-74
2021/04/27 02:45:30;;;;;;;25.23;13.33;;;4.10;99.90;;;;;;5024910;28;20250;-73
2021/04/27 02:48:06;;;;;;;25.07;14.30;;;4.00;99.90;;;;;;5012797;28;20290;-73
2021/04/27 02:50:33;;;;;;;23.17;13.57;;;4.10;99.90;;;;;;4996417;28;20632;-74
2021/04/27 02:53:00;;;;;;;23.43;13.83;;;4.00;99.90;;;;;;5015524;28;20736;-73
2021/04/27 02:55:26;;;;;;;24.87;14.37;;;4.00;99.90;;;;;;5020079;28;20204;-73
2021/04/27 02:57:53;;;;;;;23.73;13.77;;;3.90;99.90;;;;;;5012035;28;20622;-73
2021/04/27 03:00:20;;;;;;;23.73;13.87;;;3.80;99.90;;;;;;5026347;28;20635;-73
2021/04/27 03:02:46;;;;;;;25.63;14.13;;;3.70;99.90;;;;;;5031819;28;20289;-73
2021/04/27 03:05:13;;;;;;;21.27;14.53;;;3.80;99.90;;;;;;5032208;28;20293;-73
2021/04/27 03:07:41;;;;;;;20.23;14.17;;;3.80;99.90;;;;;;5031197;28;20667;-74
2021/04/27 03:10:08;;;;;;;24.30;14.70;;;3.70;99.90;;;;;;5025921;28;20298;-73
2021/04/27 03:12:35;;;;;;;24.23;14.63;;;3.60;99.90;;;;;;5008198;28;20327;-73
2021/04/27 03:15:01;;;;;;;23.47;14.30;;;3.60;99.90;;;;;;5016418;28;20310;-74
2021/04/27 03:17:28;;;;;;;23.13;15.00;;;3.60;99.90;;;;;;5011889;28;20214;-73
2021/04/27 03:19:54;;;;;;;23.03;14.70;;;3.60;99.90;;;;;;5016707;28;20635;-74
2021/04/27 03:22:21;;;;;;;28.87;16.80;;;3.60;99.90;;;;;;5024467;28;20423;-74
2021/04/27 03:24:48;;;;;;;24.37;15.70;;;3.70;99.90;;;;;;5012038;28;20288;-73
2021/04/27 03:27:15;;;;;;;27.27;16.27;;;3.80;99.90;;;;;;5005948;28;20293;-73
2021/04/27 03:29:41;;;;;;;25.77;16.57;;;3.90;99.90;;;;;;5011553;28;20289;-74
2021/04/27 03:32:08;;;;;;;24.60;15.83;;;3.90;99.90;;;;;;5011638;28;20315;-74
2021/04/27 03:34:34;;;;;;;27.93;16.40;;;3.90;99.90;;;;;;5016917;28;20352;-73
2021/04/27 03:37:00;;;;;;;29.40;16.63;;;4.00;99.90;;;;;;5030825;28;20305;-73
2021/04/27 03:39:27;;;;;;;24.63;16.13;;;4.00;99.90;;;;;;5029565;28;20294;-73
2021/04/27 03:41:54;;;;;;;23.47;15.93;;;4.10;99.90;;;;;;5011748;28;20294;-74
2021/04/27 03:44:21;;;;;;;26.67;16.37;;;4.10;99.90;;;;;;5019833;28;20289;-74
2021/04/27 03:46:47;;;;;;;29.60;17.03;;;4.10;99.90;;;;;;5012764;28;20786;-73
2021/04/27 03:49:14;;;;;;;25.40;15.40;;;4.10;99.90;;;;;;5011557;28;20357;-73
2021/04/27 03:51:40;;;;;;;24.97;15.80;;;4.00;99.90;;;;;;5019849;28;20319;-73
2021/04/27 03:54:07;;;;;;;25.43;15.80;;;4.00;99.90;;;;;;5007602;28;20286;-73
2021/04/27 03:56:33;;;;;;;24.80;16.07;;;4.00;99.90;;;;;;5011534;28;20249;-73
2021/04/27 03:59:00;;;;;;;28.27;15.83;;;4.00;99.90;;;;;;5011305;28;20246;-73
2021/04/27 04:01:27;;;;;;;24.97;16.53;;;4.00;99.90;;;;;;5011415;28;20285;-73
2021/04/27 04:03:53;;;;;;;25.50;15.87;;;4.00;99.90;;;;;;5011420;28;20196;-73
2021/04/27 04:06:20;;;;;;;26.80;17.20;;;4.00;99.90;;;;;;5011370;28;20338;-74
2021/04/27 04:08:46;;;;;;;28.27;17.53;;;3.90;99.90;;;;;;5024409;28;20566;-73
2021/04/27 04:11:13;;;;;;;22.23;15.90;;;3.90;99.90;;;;;;5016589;28;20305;-73
2021/04/27 04:13:39;;;;;;;30.87;16.83;;;3.80;99.90;;;;;;5026075;28;20231;-73
2021/04/27 04:16:07;;;;;;;27.20;16.93;;;3.80;99.90;;;;;;5028175;28;20270;-73
2021/04/27 04:18:33;;;;;;;28.70;16.70;;;3.70;99.90;;;;;;5011555;28;20291;-73
2021/04/27 04:21:00;;;;;;;26.53;17.23;;;3.60;99.90;;;;;;5025740;28;20293;-74
2021/04/27 04:23:26;;;;;;;26.70;15.93;;;3.60;99.90;;;;;;5034365;28;20212;-73
2021/04/27 04:25:53;;;;;;;27.97;17.17;;;3.50;99.90;;;;;;5034851;28;20225;-73
2021/04/27 04:28:19;;;;;;;28.43;17.57;;;3.50;99.90;;;;;;5033554;28;20294;-73
2021/04/27 04:30:46;;;;;;;29.33;18.30;;;3.50;99.90;;;;;;5031986;28;20316;-73
2021/04/27 04:33:14;;;;;;;28.77;18.80;;;3.50;99.90;;;;;;5014911;28;20243;-73
2021/04/27 04:35:40;;;;;;;30.60;18.07;;;3.60;99.90;;;;;;5014632;28;20286;-73
2021/04/27 04:38:07;;;;;;;27.97;18.17;;;3.60;99.90;;;;;;5014571;28;20245;-73
2021/04/27 04:40:34;;;;;;;24.43;17.90;;;3.60;99.90;;;;;;5014722;28;20290;-74
2021/04/27 04:43:00;;;;;;;32.67;19.23;;;3.60;99.90;;;;;;5014656;28;20680;-73
2021/04/27 04:45:27;;;;;;;30.77;19.57;;;3.50;99.90;;;;;;5014821;28;20303;-73
2021/04/27 04:47:53;;;;;;;27.53;19.60;;;3.40;99.90;;;;;;5014722;28;20715;-73
2021/04/27 04:50:22;;;;;;;31.20;19.80;;;3.40;99.90;;;;;;5022017;28;20304;-73
2021/04/27 04:52:51;;;;;;;31.37;19.33;;;3.40;99.90;;;;;;5014686;28;20296;-74
2021/04/27 04:55:18;;;;;;;30.63;19.43;;;3.30;99.90;;;;;;5013892;28;20249;-74
2021/04/27 04:57:45;;;;;;;33.53;18.97;;;3.40;99.90;;;;;;4997071;28;20242;-73
2021/04/27 05:00:14;;;;;;;31.00;19.23;;;3.30;99.90;;;;;;5018853;28;20203;-73
2021/04/27 05:02:40;;;;;;;32.23;20.03;;;3.40;99.90;;;;;;5016793;28;20294;-73
2021/04/27 05:05:09;;;;;;;33.63;19.80;;;3.50;99.90;;;;;;5014374;28;20236;-74
2021/04/27 05:07:42;;;;;;;30.33;20.17;;;3.50;99.90;;;;;;5014222;28;20575;-73
2021/04/27 05:10:10;;;;;;;31.73;20.03;;;3.70;99.90;;;;;;5022585;28;20211;-73
2021/04/27 05:12:36;;;;;;;34.50;21.13;;;3.70;99.90;;;;;;5019812;28;20306;-73
2021/04/27 05:15:04;;;;;;;33.30;19.73;;;3.90;99.90;;;;;;5033798;28;20233;-74
2021/04/27 05:17:30;;;;;;;33.20;20.53;;;3.90;99.90;;;;;;5017873;28;20290;-74
2021/04/27 05:19:59;;;;;;;33.03;19.67;;;4.00;99.90;;;;;;5014383;28;20292;-74
2021/04/27 05:22:25;;;;;;;33.03;20.57;;;3.90;99.90;;;;;;5013794;28;20204;-74
2021/04/27 05:24:53;;;;;;;34.10;20.27;;;3.90;99.90;;;;;;5014178;28;20266;-73
2021/04/27 05:27:19;;;;;;;28.77;18.60;;;3.90;99.90;;;;;;5013726;28;20291;-74
2021/04/27 05:29:46;;;;;;;29.03;18.80;;;3.90;99.90;;;;;;5013336;28;20751;-74
2021/04/27 05:32:14;;;;;;;30.57;21.23;;;4.10;99.90;;;;;;5013175;28;20231;-74
2021/04/27 05:34:40;;;;;;;32.43;19.07;;;4.30;99.90;;;;;;5015050;28;20241;-73
2021/04/27 05:37:07;;;;;;;33.30;20.60;;;4.50;99.90;;;;;;5029579;28;20291;-73
2021/04/27 05:39:33;;;;;;;25.80;18.33;;;4.70;99.90;;;;;;5013515;28;20312;-73
2021/04/27 05:42:01;;;;;;;23.43;18.27;;;4.90;99.90;;;;;;5028804;28;20197;-73
2021/04/27 05:44:27;;;;;;;26.13;17.67;;;5.00;99.90;;;;;;5033171;28;20293;-73
2021/04/27 05:46:54;;;;;;;25.70;17.67;;;5.20;99.90;;;;;;5014561;28;20632;-72
2021/04/27 05:49:21;;;;;;;24.33;17.43;;;5.50;99.90;;;;;;5013484;28;20294;-73
2021/04/27 05:51:47;;;;;;;25.00;16.93;;;5.90;99.90;;;;;;5013189;28;20313;-73
2021/04/27 05:54:14;;;;;;;26.73;16.77;;;6.10;99.90;;;;;;5011590;28;20211;-72
2021/04/27 05:56:40;;;;;;;22.30;16.90;;;6.60;99.90;;;;;;5007732;28;20288;-73
2021/04/27 05:59:08;;;;;;;23.00;15.93;;;6.90;99.90;;;;;;5010044;28;20208;-73
2021/04/27 06:01:34;;;;;;;20.57;15.07;;;7.20;99.90;;;;;;5028770;28;20292;-73
2021/04/27 06:04:01;;;;;;;24.17;15.70;;;7.70;99.90;;;;;;5031954;28;20239;-73
2021/04/27 06:06:27;;;;;;;22.93;14.53;;;8.10;99.90;;;;;;5021195;28;20287;-73
2021/04/27 06:08:53;;;;;;;24.70;15.73;;;8.70;99.90;;;;;;5031075;28;20678;-73
2021/04/27 06:11:20;;;;;;;26.20;15.93;;;9.20;99.90;;;;;;5028075;28;20232;-72
2021/04/27 06:13:46;;;;;;;22.40;14.90;;;9.90;99.90;;;;;;5016906;28;20255;-72
2021/04/27 06:16:14;;;;;;;21.10;14.50;;;10.50;99.90;;;;;;5025565;28;20323;-72
2021/04/27 06:18:40;;;;;;;21.27;15.17;;;10.50;99.90;;;;;;5018496;28;20245;-72
2021/04/27 06:21:07;;;;;;;18.70;14.40;;;10.90;99.90;;;;;;5022776;28;20329;-72
2021/04/27 06:23:34;;;;;;;21.07;14.60;;;11.60;99.90;;;;;;5022600;28;20200;-72
2021/04/27 06:26:00;;;;;;;20.77;14.67;;;11.40;99.90;;;;;;5015182;28;20235;-72
2021/04/27 06:28:27;;;;;;;21.57;14.30;;;12.30;99.90;;;;;;5012975;28;20238;-72
2021/04/27 06:30:53;;;;;;;18.60;14.37;;;12.00;99.90;;;;;;5020593;28;20755;-72
2021/04/27 06:33:21;;;;;;;18.23;14.33;;;12.00;99.90;;;;;;5026631;28;20231;-72
2021/04/27 06:35:47;;;;;;;19.27;14.10;;;12.80;99.90;;;;;;5013195;28;20297;-73
2021/04/27 06:38:17;;;;;;;18.83;14.20;;;13.10;99.90;;;;;;5012017;28;20300;-73
2021/04/27 06:40:44;;;;;;;17.30;13.43;;;13.50;99.90;;;;;;5014960;28;20653;-73
2021/04/27 06:43:11;;;;;;;18.43;14.57;;;13.70;99.90;;;;;;5013089;28;20235;-72
2021/04/27 06:45:38;;;;;;;18.83;14.40;;;13.90;99.90;;;;;;5014580;28;20282;-72
2021/04/27 06:48:06;;;;;;;16.37;13.70;;;13.80;99.90;;;;;;5015257;28;20296;-72
2021/04/27 06:50:34;;;;;;;21.73;14.10;;;14.00;99.90;;;;;;5017269;28;20228;-72
2021/04/27 06:53:01;;;;;;;16.53;13.60;;;13.90;99.90;;;;;;5017107;28;20283;-72
2021/04/27 06:55:28;;;;;;;17.13;14.60;;;13.50;99.90;;;;;;5012508;28;20244;-72
2021/04/27 06:58:00;;;;;;;18.70;14.60;;;13.60;99.90;;;;;;5019756;28;20200;-72
2021/04/27 07:00:27;;;;;;;19.97;14.60;;;14.30;99.90;;;;;;5016658;28;20290;-73
2021/04/27 07:02:53;;;;;;;20.33;14.57;;;14.70;99.90;;;;;;5020345;28;20291;-73
2021/04/27 07:05:20;;;;;;;17.33;14.60;;;14.60;99.90;;;;;;5015900;28;20225;-73
2021/04/27 07:07:50;;;;;;;17.92;14.15;;;15.00;99.90;;;;;;5013643;28;20205;-73
2021/04/27 07:10:16;;;;;;;22.00;14.77;;;14.80;99.90;;;;;;5010972;28;20288;-73
2021/04/27 07:12:43;;;;;;;16.08;14.38;;;15.30;99.90;;;;;;5014391;28;20315;-73
2021/04/27 07:15:10;;;;;;;19.95;14.65;;;15.90;99.90;;;;;;5013360;28;20336;-74
2021/04/27 07:17:37;;;;;;;17.98;14.82;;;15.00;99.90;;;;;;4995078;28;20288;-73
2021/04/27 07:20:05;;;;;;;17.55;14.13;;;16.00;99.90;;;;;;5012174;28;20612;-74
2021/04/27 07:22:31;;;;;;;19.13;13.77;;;15.10;99.90;;;;;;5012263;28;20286;-74
2021/04/27 07:24:59;;;;;;;15.80;13.73;;;15.70;99.90;;;;;;5015013;28;20300;-73
2021/04/27 07:27:25;;;;;;;16.45;14.35;;;16.40;99.90;;;;;;5013408;28;20283;-74
2021/04/27 07:29:51;;;;;;;18.13;14.48;;;16.60;99.90;;;;;;5012042;28;20207;-74
2021/04/27 07:32:18;;;;;;;17.25;14.52;;;17.10;99.90;;;;;;5020940;28;20217;-73
2021/04/27 07:34:44;;;;;;;18.05;14.68;;;17.70;99.90;;;;;;5012860;28;20789;-74
2021/04/27 07:37:11;;;;;;;15.93;13.93;;;17.80;99.90;;;;;;5013464;28;20641;-73
2021/04/27 07:39:37;;;;;;;15.88;13.98;;;18.00;99.90;;;;;;5010378;28;20288;-74
2021/04/27 07:42:06;;;;;;;15.82;14.05;;;18.60;99.90;;;;;;5011596;28;20737;-74
2021/04/27 07:44:32;;;;;;;19.50;13.85;;;16.80;99.90;;;;;;5014450;28;20228;-73
2021/04/27 07:46:58;;;;;;;15.68;13.60;;;16.90;99.90;;;;;;5010080;28;20288;-73
2021/04/27 07:49:25;;;;;;;17.73;13.88;;;17.00;99.90;;;;;;5018867;28;20681;-74
2021/04/27 07:51:51;;;;;;;18.35;14.18;;;16.80;99.90;;;;;;5013986;28;20221;-74
2021/04/27 07:54:18;;;;;;;20.98;13.73;;;16.30;99.90;;;;;;5014951;28;20295;-73
2021/04/27 07:56:44;;;;;;;16.08;14.20;;;17.10;99.90;;;;;;5016790;28;20224;-74
2021/04/27 07:59:13;;;;;;;17.58;15.05;;;17.60;99.90;;;;;;5017524;28;20231;-74
2021/04/27 08:01:39;;;;;;;15.68;13.98;;;17.60;99.90;;;;;;5016781;28;20215;-73
2021/04/27 08:04:06;;;;;;;16.23;14.55;;;18.00;99.90;;;;;;5015286;28;20311;-73
2021/04/27 08:06:33;;;;;;;15.98;14.27;;;18.30;99.90;;;;;;5016854;28;20204;-74
2021/04/27 08:09:00;;;;;;;17.73;14.02;;;18.00;99.90;;;;;;5018027;28;20339;-73
2021/04/27 08:11:27;;;;;;;19.38;14.40;;;19.30;99.90;;;;;;5020627;28;20232;-72
2021/04/27 08:13:53;;;;;;;17.25;14.60;;;18.90;99.90;;;;;;5019158;28;20942;-74
2021/04/27 08:16:21;;;;;;;18.73;14.23;;;19.20;99.90;;;;;;5014049;28;20316;-73
2021/04/27 08:18:47;;;;;;;17.02;14.63;;;18.80;99.90;;;;;;5016319;28;20232;-73
2021/04/27 08:21:14;;;;;;;15.60;14.05;;;18.80;99.90;;;;;;5017740;28;20235;-73
2021/04/27 08:23:41;;;;;;;16.25;14.07;;;18.80;99.90;;;;;;5023443;28;20204;-74
2021/04/27 08:26:10;;;;;;;19.63;15.05;;;18.70;99.90;;;;;;5013171;28;20292;-73
2021/04/27 08:28:36;;;;;;;16.67;13.82;;;18.70;99.90;;;;;;5025435;28;20339;-73
2021/04/27 08:31:04;;;;;;;18.83;14.07;;;19.40;99.90;;;;;;5018854;28;20761;-74
2021/04/27 08:33:31;;;;;;;19.67;13.93;;;19.60;99.90;;;;;;5020650;28;20196;-74
2021/04/27 08:35:58;;;;;;;16.85;14.65;;;19.60;99.90;;;;;;5015559;28;20212;-74
2021/04/27 08:38:24;;;;;;;15.48;13.88;;;20.30;99.90;;;;;;5014926;28;20645;-73
2021/04/27 08:40:51;;;;;;;16.35;13.90;;;19.80;99.90;;;;;;5014437;28;20757;-73
2021/04/27 08:43:18;;;;;;;17.83;14.18;;;20.00;99.90;;;;;;5015388;28;20284;-73
2021/04/27 08:45:45;;;;;;;15.80;14.10;;;20.30;99.90;;;;;;5017621;28;20803;-74
2021/04/27 08:48:13;;;;;;;15.68;14.02;;;20.00;99.90;;;;;;5020225;28;20291;-74
2021/04/27 08:50:42;;;;;;;18.52;13.63;;;20.40;99.70;;;;;;5018218;28;20291;-74
2021/04/27 08:53:10;;;;;;;15.82;14.10;;;21.90;99.60;;;;;;5015924;28;20627;-74
2021/04/27 08:55:37;;;;;;;17.13;13.02;;;21.50;97.60;;;;;;5020363;28;20693;-74
2021/04/27 08:58:04;;;;;;;14.48;12.98;;;22.00;97.00;;;;;;5016998;28;20620;-73
2021/04/27 09:00:31;;;;;;;13.75;12.35;;;21.40;92.50;;;;;;5021764;28;20232;-74
2021/04/27 09:03:01;;;;;;;13.43;11.98;;;20.20;92.60;;;;;;5017897;28;20231;-74
2021/04/27 09:05:31;;;;;;;16.15;12.45;;;20.60;94.60;;;;;;5004199;28;20249;-73
2021/04/27 09:07:59;;;;;;;15.00;12.43;;;19.80;91.40;;;;;;5015239;28;20289;-73
2021/04/27 09:10:28;;;;;;;14.00;12.57;;;20.50;91.80;;;;;;5013751;28;20292;-74
2021/04/27 09:12:56;;;;;;;13.95;11.88;;;20.10;91.20;;;;;;5012273;28;20307;-74
2021/04/27 09:15:29;;;;;;;15.60;12.70;;;20.90;90.50;;;;;;5010088;28;20283;-74
2021/04/27 09:17:55;;;;;;;13.30;11.73;;;20.70;83.70;;;;;;5017509;28;20205;-74
2021/04/27 09:20:23;;;;;;;14.95;12.43;;;21.70;91.40;;;;;;5013437;28;20293;-74
2021/04/27 09:22:50;;;;;;;15.75;11.63;;;20.80;88.10;;;;;;5016093;28;20882;-74
2021/04/27 09:25:23;;;;;;;14.02;11.88;;;21.60;87.30;;;;;;5017808;28;20204;-74
2021/04/27 09:27:50;;;;;;;19.42;13.00;;;20.90;80.80;;;;;;5011376;28;20293;-74
2021/04/27 09:30:20;;;;;;;14.70;13.18;;;20.00;86.00;;;;;;5016893;28;20258;-74
2021/04/27 09:32:53;;;;;;;20.50;12.68;;;20.80;83.60;;;;;;5016617;28;20292;-74
2021/04/27 09:35:32;;;;;;;13.82;11.80;;;21.00;85.50;;;;;;5016465;28;20256;-74
2021/04/27 09:38:06;;;;;;;15.30;12.55;;;21.60;84.20;;;;;;5016069;28;20197;-74
2021/04/27 09:40:43;;;;;;;16.23;12.18;;;20.40;89.60;;;;;;5023612;28;20776;-74
2021/04/27 09:43:09;;;;;;;14.95;12.60;;;21.00;83.90;;;;;;5020861;28;20243;-74
2021/04/27 09:45:39;;;;;;;15.52;11.80;;;21.30;84.80;;;;;;5013609;28;20296;-74
2021/04/27 09:48:07;;;;;;;16.20;12.52;;;22.40;82.20;;;;;;5020398;28;20622;-74
2021/04/27 09:50:34;;;;;;;14.38;12.25;;;22.00;80.40;;;;;;5025381;28;20371;-74
2021/04/27 09:53:01;;;;;;;21.92;12.45;;;22.00;82.10;;;;;;5013993;28;20280;-74
2021/04/27 09:55:31;;;;;;;14.18;12.57;;;21.90;79.80;;;;;;5008161;28;20330;-74
2021/04/27 09:57:59;;;;;;;14.40;11.40;;;22.40;76.30;;;;;;5012451;28;20224;-74
2021/04/27 10:00:33;;;;;;;20.58;11.75;;;22.40;78.00;;;;;;5016991;28;20198;-74
2021/04/27 10:03:03;;;;;;;14.52;12.05;;;22.40;79.80;;;;;;5020306;28;20196;-74
2021/04/27 10:05:30;;;;;;;13.95;11.85;;;22.50;79.50;;;;;;5024004;28;20295;-74
2021/04/27 10:07:58;;;;;;;14.85;11.55;;;21.50;75.70;;;;;;5020743;28;20296;-74
2021/04/27 10:10:26;;;;;;;13.25;11.85;;;22.70;80.20;;;;;;5022326;28;20275;-74
2021/04/27 10:12:53;;;;;;;15.00;12.52;;;22.30;71.30;;;;;;5012117;28;20365;-74
2021/04/27 10:15:20;;;;;;;14.20;12.57;;;23.10;75.30;;;;;;5010216;28;20240;-74
2021/04/27 10:17:47;;;;;;;13.20;11.55;;;22.60;74.80;;;;;;5014174;28;20287;-74
2021/04/27 10:20:15;;;;;;;13.60;12.15;;;22.00;79.00;;;;;;5018409;28;20737;-74
2021/04/27 10:22:43;;;;;;;13.35;11.75;;;21.90;74.80;;;;;;5015157;28;20225;-74
2021/04/27 10:25:17;;;;;;;14.43;11.82;;;22.50;76.30;;;;;;5020314;28;20288;-74
2021/04/27 10:27:46;;;;;;;13.63;12.05;;;22.40;76.00;;;;;;5016704;28;20224;-74
2021/04/27 10:30:39;;;;;;;13.55;11.98;;;21.70;74.90;;;;;;5016719;28;20727;-74
2021/04/27 10:33:17;;;;;;;13.35;11.32;;;22.00;76.00;;;;;;5022729;28;20279;-74
2021/04/27 10:35:59;;;;;;;15.35;11.55;;;23.40;76.60;;;;;;5024885;28;20232;-74
2021/04/27 10:38:45;;;;;;;18.23;12.52;;;22.70;73.40;;;;;;5022195;28;20279;-74
2021/04/27 10:41:15;;;;;;;15.00;12.30;;;23.70;73.60;;;;;;5017008;28;20197;-74
2021/04/27 10:43:53;;;;;;;13.30;11.80;;;24.20;72.30;;;;;;5015277;28;20205;-74
2021/04/27 10:46:55;;;;;;;13.07;11.85;;;23.80;73.50;;;;;;5018552;28;20203;-74
2021/04/27 10:49:34;;;;;;;13.60;11.73;;;23.40;70.60;;;;;;5014056;28;20297;-74
2021/04/27 10:52:02;;;;;;;14.45;11.80;;;23.50;73.90;;;;;;5010666;28;20315;-75
2021/04/27 10:54:34;;;;;;;14.70;11.68;;;23.60;69.70;;;;;;5001383;28;20232;-74
2021/04/27 10:57:17;;;;;;;12.18;10.88;;;22.60;71.70;;;;;;5017625;28;20284;-74
2021/04/27 10:59:58;;;;;;;13.32;11.93;;;23.30;69.10;;;;;;5015508;28;20358;-75
2021/04/27 11:02:29;;;;;;;13.95;11.80;;;22.70;69.20;;;;;;5020837;28;20191;-74
2021/04/27 11:05:01;;;;;;;12.60;11.30;;;23.90;65.30;;;;;;5028712;28;20291;-75
2021/04/27 11:07:36;;;;;;;12.80;11.00;;;24.30;64.20;;;;;;5009081;28;20213;-74
2021/04/27 11:10:31;;;;;;;13.50;11.93;;;23.80;65.90;;;;;;5023653;28;20282;-74
2021/04/27 11:13:08;;;;;;;11.98;10.77;;;22.90;65.50;;;;;;5015678;28;20232;-74
2021/04/27 11:15:36;;;;;;;12.07;10.88;;;23.80;66.70;;;;;;5016509;28;20252;-74
2021/04/27 11:18:11;;;;;;;12.20;10.32;;;23.00;66.20;;;;;;5016211;28;20288;-73
2021/04/27 11:20:46;;;;;;;14.55;12.20;;;23.40;68.60;;;;;;5020357;28;20624;-74
2021/04/27 11:23:34;;;;;;;13.95;12.00;;;23.80;62.50;;;;;;5023881;28;20634;-74
2021/04/27 11:26:01;;;;;;;12.82;11.50;;;23.40;62.30;;;;;;5015619;28;20197;-74
2021/04/27 11:28:50;;;;;;;14.55;11.25;;;24.30;61.00;;;;;;5021656;28;20295;-74
2021/04/27 11:31:17;;;;;;;11.45;10.40;;;23.60;64.40;;;;;;5016184;28;20247;-74
2021/04/27 11:33:53;;;;;;;11.18;9.63;;;23.70;64.90;;;;;;5016164;28;20204;-74
2021/04/27 11:36:33;;;;;;;13.32;11.27;;;24.80;62.40;;;;;;5015612;28;20744;-75
2021/04/27 11:38:59;;;;;;;12.20;10.90;;;24.20;59.10;;;;;;5016296;28;20204;-75
2021/04/27 11:41:43;;;;;;;13.70;11.70;;;24.30;60.70;;;;;;5010822;28;20327;-74
2021/04/27 11:44:09;;;;;;;12.38;11.10;;;24.00;64.90;;;;;;5014290;28;20291;-74
2021/04/27 11:46:57;;;;;;;13.48;11.48;;;24.30;64.10;;;;;;5009573;28;20288;-74
2021/04/27 11:49:50;;;;;;;13.63;12.23;;;24.00;65.30;;;;;;5007739;28;20244;-74
2021/04/27 11:52:48;;;;;;;13.98;12.00;;;22.80;63.40;;;;;;5008557;28;20309;-74
2021/04/27 11:55:24;;;;;;;13.73;12.27;;;22.90;64.20;;;;;;5013221;28;20695;-74
2021/04/27 11:57:57;;;;;;;13.77;12.38;;;23.40;60.80;;;;;;5008257;28;20281;-74
2021/04/27 12:00:38;;;;;;;15.60;12.60;;;23.80;65.00;;;;;;5014344;28;20288;-74
2021/04/27 12:03:33;;;;;;;12.82;10.63;;;24.60;59.50;;;;;;5014655;28;20204;-73
2021/04/27 12:06:13;;;;;;;13.70;12.20;;;26.30;62.70;;;;;;4949989;28;20211;-74
2021/04/27 12:08:41;;;;;;;20.65;13.07;;;23.70;58.10;;;;;;4949469;28;20202;-74
2021/04/27 12:11:19;;;;;;;13.45;12.00;;;23.00;62.40;;;;;;4949982;28;20330;-74
2021/04/27 12:13:47;;;;;;;14.35;11.90;;;23.00;70.00;;;;;;4953179;28;20330;-74
2021/04/27 12:16:15;;;;;;;14.13;11.70;;;23.90;65.00;;;;;;4949928;28;20226;-74
2021/04/27 12:19:00;;;;;;;13.77;11.98;;;24.70;63.40;;;;;;4950159;28;20908;-74
2021/04/27 12:21:43;;;;;;;14.23;11.98;;;24.00;64.10;;;;;;4934508;29;20203;-73
2021/04/27 12:24:13;;;;;;;12.90;11.60;;;23.60;59.60;;;;;;4926171;28;20274;-73
2021/04/27 12:26:41;;;;;;;14.65;12.48;;;24.50;59.70;;;;;;4946215;28;20745;-73
2021/04/27 12:29:09;;;;;;;14.43;12.48;;;24.20;60.40;;;;;;4949198;28;20291;-74
2021/04/27 12:31:37;;;;;;;15.68;12.60;;;25.20;67.10;;;;;;4949012;28;20313;-73
2021/04/27 12:34:05;;;;;;;21.42;13.20;;;25.10;59.10;;;;;;4939713;28;20234;-73
2021/04/27 12:36:37;;;;;;;15.25;12.55;;;23.50;60.80;;;;;;4952719;28;20196;-73
2021/04/27 12:39:09;;;;;;;18.27;12.38;;;24.20;62.30;;;;;;4947680;28;20219;-73
2021/04/27 12:41:37;;;;;;;14.25;12.75;;;23.60;56.90;;;;;;4979612;28;20228;-73
2021/04/27 12:44:27;;;;;;;17.63;13.10;;;23.40;58.40;;;;;;5018174;28;20288;-73
2021/04/27 12:46:53;;;;;;;12.80;11.48;;;23.20;57.60;;;;;;5014252;28;20270;-73